Time;durP1;ratioP1;P1;durP2;ratioP2;P2;SDS_P1;SDS_P2;PMS_P1;PMS_P2;Temp;Humidity;BMP_temperature;BMP_pressure;BME280_temperature;BME280_humidity;BME280_pressure;Samples;Min_cycle;Max_cycle;Signal;HPM_P1;HPM_P2
2023/09/23 00:01:32;;;;;;;4.32;0.80;;;12.00;99.90;;;;;;5036654;28;20104;-67
2023/09/23 00:03:58;;;;;;;3.10;0.77;;;11.90;99.90;;;;;;5035552;28;20060;-66
2023/09/23 00:06:24;;;;;;;2.45;0.70;;;11.90;99.90;;;;;;5036736;28;20397;-67
2023/09/23 00:08:50;;;;;;;2.95;0.60;;;11.90;99.90;;;;;;5036845;28;20041;-67
2023/09/23 00:11:16;;;;;;;2.45;0.63;;;11.90;99.90;;;;;;5022106;28;20029;-67
2023/09/23 00:13:42;;;;;;;4.88;0.68;;;11.90;99.90;;;;;;5036552;28;20583;-67
2023/09/23 00:16:11;;;;;;;1.45;0.52;;;11.80;99.90;;;;;;5046495;28;20367;-67
2023/09/23 00:18:38;;;;;;;3.97;0.80;;;11.80;99.90;;;;;;5036769;28;20029;-67
2023/09/23 00:21:05;;;;;;;3.95;0.90;;;11.80;99.90;;;;;;5036893;28;20464;-66
2023/09/23 00:23:34;;;;;;;4.18;0.77;;;11.70;99.90;;;;;;5036627;28;20030;-67
2023/09/23 00:26:01;;;;;;;1.77;0.60;;;11.70;99.90;;;;;;5036651;28;20478;-67
2023/09/23 00:28:28;;;;;;;2.85;0.70;;;11.70;99.90;;;;;;5036418;28;20486;-67
2023/09/23 00:31:01;;;;;;;4.05;0.73;;;11.60;99.90;;;;;;5040198;28;20025;-67
2023/09/23 00:33:26;;;;;;;4.82;0.70;;;11.60;99.90;;;;;;5040518;28;20029;-67
2023/09/23 00:35:52;;;;;;;2.60;0.80;;;11.70;99.90;;;;;;5040659;28;20497;-67
2023/09/23 00:38:18;;;;;;;3.10;0.80;;;11.60;99.90;;;;;;5038958;28;20094;-67
2023/09/23 00:40:44;;;;;;;3.38;0.68;;;11.60;99.90;;;;;;5040429;28;20429;-66
2023/09/23 00:43:13;;;;;;;2.28;0.60;;;11.60;99.90;;;;;;5039982;28;20087;-67
2023/09/23 00:45:48;;;;;;;2.47;0.60;;;11.60;99.90;;;;;;5040217;28;20064;-67
2023/09/23 00:48:23;;;;;;;4.35;0.90;;;11.50;99.90;;;;;;5038779;28;20026;-67
2023/09/23 00:50:50;;;;;;;4.00;0.70;;;11.60;99.90;;;;;;5040312;28;20029;-67
2023/09/23 00:53:17;;;;;;;4.28;1.00;;;11.60;99.90;;;;;;5040101;28;20025;-67
2023/09/23 00:55:51;;;;;;;3.58;0.82;;;11.60;99.90;;;;;;5042144;28;20029;-67
2023/09/23 00:58:21;;;;;;;4.55;0.85;;;11.50;99.90;;;;;;5039601;28;20061;-67
2023/09/23 01:00:48;;;;;;;2.38;0.80;;;11.50;99.90;;;;;;5040099;28;20085;-67
2023/09/23 01:03:15;;;;;;;3.20;0.90;;;11.50;99.90;;;;;;5039843;28;20474;-67
2023/09/23 01:05:41;;;;;;;1.98;0.90;;;11.50;99.90;;;;;;5039659;28;20025;-67
2023/09/23 01:08:22;;;;;;;3.35;0.80;;;11.50;99.90;;;;;;5040041;28;20025;-67
2023/09/23 01:10:48;;;;;;;5.35;0.95;;;11.40;99.90;;;;;;5039580;28;20494;-67
2023/09/23 01:13:14;;;;;;;3.47;0.85;;;11.40;99.90;;;;;;5039739;28;20054;-67
2023/09/23 01:15:41;;;;;;;3.88;1.00;;;11.40;99.90;;;;;;5048343;28;20024;-67
2023/09/23 01:18:21;;;;;;;2.05;0.82;;;11.40;99.90;;;;;;5039793;28;20029;-67
2023/09/23 01:20:55;;;;;;;4.88;0.80;;;11.40;99.90;;;;;;5038159;28;20084;-67
2023/09/23 01:23:21;;;;;;;4.25;0.85;;;11.40;99.90;;;;;;5038242;28;20037;-67
2023/09/23 01:25:47;;;;;;;3.17;0.90;;;11.40;99.90;;;;;;5039545;28;20714;-67
2023/09/23 01:28:13;;;;;;;3.72;0.80;;;11.40;99.90;;;;;;5039504;28;20068;-67
2023/09/23 01:30:45;;;;;;;5.18;1.02;;;11.40;99.90;;;;;;5038202;28;20441;-67
2023/09/23 01:33:13;;;;;;;4.20;0.85;;;11.30;99.90;;;;;;5039499;28;20029;-67
2023/09/23 01:35:40;;;;;;;4.18;0.90;;;11.30;99.90;;;;;;5039558;28;20034;-67
2023/09/23 01:38:06;;;;;;;2.22;0.73;;;11.30;99.90;;;;;;5039279;28;20029;-67
2023/09/23 01:40:33;;;;;;;3.55;0.80;;;11.30;99.90;;;;;;5039057;28;20052;-67
2023/09/23 01:42:59;;;;;;;2.63;0.70;;;11.30;99.90;;;;;;5038778;28;20025;-67
2023/09/23 01:45:28;;;;;;;2.50;0.70;;;11.30;99.90;;;;;;5039260;28;20446;-67
2023/09/23 01:47:57;;;;;;;2.75;0.60;;;11.20;99.90;;;;;;5039117;28;20044;-67
2023/09/23 01:50:24;;;;;;;3.35;0.70;;;11.30;99.90;;;;;;5039163;28;20029;-67
2023/09/23 01:52:50;;;;;;;3.55;0.90;;;11.30;99.90;;;;;;5039077;28;20036;-67
2023/09/23 01:55:17;;;;;;;2.08;0.80;;;11.30;99.90;;;;;;5040352;28;20025;-66
2023/09/23 01:57:43;;;;;;;3.42;0.80;;;11.30;99.90;;;;;;5038529;28;20132;-67
2023/09/23 02:00:17;;;;;;;1.25;0.52;;;11.20;99.90;;;;;;5038930;28;20037;-67
2023/09/23 02:02:44;;;;;;;5.30;0.98;;;11.20;99.90;;;;;;5038742;28;20095;-66
2023/09/23 02:05:10;;;;;;;4.22;0.90;;;11.20;99.90;;;;;;5038913;28;20429;-67
2023/09/23 02:07:35;;;;;;;2.60;1.00;;;11.20;99.90;;;;;;5038738;28;20083;-67
2023/09/23 02:10:01;;;;;;;2.20;0.73;;;11.20;99.90;;;;;;5038845;28;20026;-67
2023/09/23 02:12:27;;;;;;;2.53;0.70;;;11.20;99.90;;;;;;5038580;28;20486;-66
2023/09/23 02:14:53;;;;;;;3.65;0.60;;;11.20;99.90;;;;;;5044342;28;20020;-66
2023/09/23 02:17:20;;;;;;;4.15;0.70;;;11.10;99.90;;;;;;5043340;28;20493;-66
2023/09/23 02:19:50;;;;;;;3.53;0.90;;;11.10;99.90;;;;;;5038417;28;20080;-67
2023/09/23 02:22:17;;;;;;;2.15;0.98;;;11.10;99.90;;;;;;5038438;28;20402;-67
2023/09/23 02:24:43;;;;;;;4.80;0.93;;;11.10;99.90;;;;;;5038395;28;20029;-66
2023/09/23 02:27:09;;;;;;;1.95;0.70;;;11.10;99.90;;;;;;5038178;28;20490;-67
2023/09/23 02:29:35;;;;;;;2.80;0.70;;;11.10;99.90;;;;;;5038182;28;20094;-66
2023/09/23 02:32:01;;;;;;;3.90;0.80;;;11.00;99.90;;;;;;5038222;28;20025;-67
2023/09/23 02:34:30;;;;;;;4.50;1.00;;;11.00;99.90;;;;;;5038476;28;20556;-66
2023/09/23 02:36:56;;;;;;;4.60;0.55;;;11.00;99.90;;;;;;5038375;28;20493;-67
2023/09/23 02:39:21;;;;;;;2.58;0.60;;;10.90;99.90;;;;;;5038209;28;20025;-66
2023/09/23 02:41:49;;;;;;;3.58;1.00;;;10.90;99.90;;;;;;5037803;28;20500;-67
2023/09/23 02:44:18;;;;;;;5.38;0.80;;;10.80;99.90;;;;;;5037955;28;20056;-66
2023/09/23 02:46:47;;;;;;;3.85;0.85;;;10.80;99.90;;;;;;5037736;28;20021;-67
2023/09/23 02:49:14;;;;;;;2.45;0.60;;;10.90;99.90;;;;;;5038130;28;20024;-66
2023/09/23 02:51:42;;;;;;;2.30;0.63;;;10.90;99.90;;;;;;5037385;28;20471;-67
2023/09/23 02:54:08;;;;;;;3.88;0.75;;;10.80;99.90;;;;;;5039120;28;20020;-67
2023/09/23 02:56:34;;;;;;;5.00;0.98;;;10.80;99.90;;;;;;5037325;28;20379;-67
2023/09/23 02:59:04;;;;;;;3.83;0.90;;;10.80;99.90;;;;;;5037629;28;20080;-67
2023/09/23 03:01:30;;;;;;;3.38;0.73;;;10.70;99.90;;;;;;5037389;28;20036;-67
2023/09/23 03:03:56;;;;;;;2.95;1.10;;;10.70;99.90;;;;;;5037712;28;20417;-67
2023/09/23 03:06:25;;;;;;;3.80;0.70;;;10.70;99.90;;;;;;5036168;28;20116;-66
2023/09/23 03:08:54;;;;;;;4.18;0.85;;;10.70;99.90;;;;;;5037666;28;20028;-67
2023/09/23 03:11:20;;;;;;;3.03;0.60;;;10.70;99.90;;;;;;5037613;28;20039;-66
2023/09/23 03:13:46;;;;;;;3.53;0.73;;;10.70;99.90;;;;;;5035917;28;20494;-67
2023/09/23 03:16:16;;;;;;;6.97;1.02;;;10.70;99.90;;;;;;5046109;28;20036;-67
2023/09/23 03:18:55;;;;;;;4.53;0.93;;;10.70;99.90;;;;;;5037390;28;20028;-67
2023/09/23 03:21:20;;;;;;;4.85;0.93;;;10.70;99.90;;;;;;5036190;28;20040;-66
2023/09/23 03:23:46;;;;;;;3.90;0.77;;;10.70;99.90;;;;;;5037156;28;20096;-67
2023/09/23 03:26:15;;;;;;;2.92;0.75;;;10.70;99.90;;;;;;5037327;28;20486;-67
2023/09/23 03:28:40;;;;;;;3.97;1.00;;;10.70;99.90;;;;;;5037016;28;20557;-66
2023/09/23 03:31:09;;;;;;;2.67;0.77;;;10.60;99.90;;;;;;5037354;28;20053;-67
2023/09/23 03:33:36;;;;;;;7.38;1.20;;;10.70;99.90;;;;;;5037132;28;20025;-66
2023/09/23 03:36:02;;;;;;;3.47;0.73;;;10.70;99.90;;;;;;5037458;28;20057;-66
2023/09/23 03:38:28;;;;;;;3.90;0.80;;;10.60;99.90;;;;;;5037087;28;20029;-67
2023/09/23 03:41:02;;;;;;;4.07;0.70;;;10.60;99.90;;;;;;5037167;28;20131;-67
2023/09/23 03:43:31;;;;;;;2.85;0.70;;;10.50;99.90;;;;;;5036768;28;20029;-66
2023/09/23 03:45:56;;;;;;;3.92;0.93;;;10.50;99.90;;;;;;5037087;28;20029;-67
2023/09/23 03:48:22;;;;;;;3.75;0.82;;;10.40;99.90;;;;;;5037014;28;20025;-67
2023/09/23 03:50:52;;;;;;;3.67;0.80;;;10.40;99.90;;;;;;5037114;28;20029;-66
2023/09/23 03:53:21;;;;;;;2.38;0.90;;;10.40;99.90;;;;;;5036910;28;20044;-67
2023/09/23 03:55:54;;;;;;;2.65;0.90;;;10.40;99.90;;;;;;5039567;28;20136;-67
2023/09/23 03:58:20;;;;;;;2.35;0.98;;;10.40;99.90;;;;;;5036251;28;20101;-67
2023/09/23 04:00:45;;;;;;;3.95;1.08;;;10.40;99.90;;;;;;5037110;28;20465;-66
2023/09/23 04:03:11;;;;;;;3.83;0.77;;;10.50;99.90;;;;;;5035603;28;20029;-67
2023/09/23 04:05:36;;;;;;;2.28;0.60;;;10.40;99.90;;;;;;5039857;28;20026;-67
2023/09/23 04:08:03;;;;;;;2.03;1.00;;;10.40;99.90;;;;;;5041092;28;20018;-67
2023/09/23 04:10:29;;;;;;;3.30;0.80;;;10.30;99.90;;;;;;5041033;28;20026;-67
2023/09/23 04:12:55;;;;;;;2.50;1.10;;;10.30;99.90;;;;;;5040914;28;20382;-67
2023/09/23 04:15:21;;;;;;;3.00;0.70;;;10.20;99.90;;;;;;5050406;28;20025;-67
2023/09/23 04:17:47;;;;;;;3.78;0.80;;;10.20;99.90;;;;;;5039423;28;20120;-67
2023/09/23 04:20:14;;;;;;;3.78;0.80;;;10.20;99.90;;;;;;5033877;28;20048;-66
2023/09/23 04:22:41;;;;;;;2.28;0.90;;;10.20;99.90;;;;;;5040845;28;20109;-67
2023/09/23 04:25:10;;;;;;;4.55;0.88;;;10.20;99.90;;;;;;5040572;28;20033;-67
2023/09/23 04:27:37;;;;;;;3.72;0.70;;;10.20;99.90;;;;;;5040342;28;20091;-67
2023/09/23 04:30:11;;;;;;;2.90;0.88;;;10.20;99.90;;;;;;5040503;28;20083;-66
2023/09/23 04:32:38;;;;;;;2.15;0.80;;;10.20;99.90;;;;;;5040637;28;20021;-67
2023/09/23 04:35:07;;;;;;;5.90;0.95;;;10.20;99.90;;;;;;5040470;28;20017;-67
2023/09/23 04:37:37;;;;;;;2.10;0.68;;;10.20;99.90;;;;;;5040588;28;20030;-67
2023/09/23 04:40:11;;;;;;;5.22;0.82;;;10.20;99.90;;;;;;5040051;28;20025;-66
2023/09/23 04:42:37;;;;;;;3.33;0.80;;;10.20;99.90;;;;;;5040143;28;20079;-66
2023/09/23 04:45:04;;;;;;;2.75;0.88;;;10.20;99.90;;;;;;5040198;28;20029;-67
2023/09/23 04:47:30;;;;;;;3.25;0.80;;;10.20;99.90;;;;;;5038861;28;20044;-67
2023/09/23 04:49:57;;;;;;;3.70;0.80;;;10.00;99.90;;;;;;5040376;28;20084;-67
2023/09/23 04:52:23;;;;;;;5.20;1.10;;;10.00;99.90;;;;;;5040205;28;20018;-66
2023/09/23 04:54:53;;;;;;;2.35;0.80;;;10.00;99.90;;;;;;5043044;28;20067;-67
2023/09/23 04:57:19;;;;;;;2.17;0.68;;;10.00;99.90;;;;;;5037953;28;20050;-66
2023/09/23 04:59:44;;;;;;;2.45;0.60;;;10.00;99.90;;;;;;5038643;28;20028;-67
2023/09/23 05:02:16;;;;;;;4.28;1.00;;;10.00;99.90;;;;;;5038902;28;20104;-67
2023/09/23 05:04:45;;;;;;;2.67;0.80;;;10.10;99.90;;;;;;5038724;28;20029;-67
2023/09/23 05:07:11;;;;;;;4.90;0.75;;;10.10;99.90;;;;;;5038638;28;20025;-66
2023/09/23 05:09:37;;;;;;;3.60;0.90;;;10.10;99.90;;;;;;5038533;28;20026;-66
2023/09/23 05:12:03;;;;;;;3.47;1.00;;;10.10;99.90;;;;;;5038550;28;20010;-66
2023/09/23 05:14:28;;;;;;;4.65;0.85;;;10.10;99.90;;;;;;5038177;28;20112;-66
2023/09/23 05:16:54;;;;;;;2.45;0.82;;;10.10;99.90;;;;;;5037821;28;20096;-66
2023/09/23 05:19:20;;;;;;;3.40;0.70;;;10.10;99.90;;;;;;5038020;28;20052;-66
2023/09/23 05:21:49;;;;;;;4.50;1.00;;;10.00;99.90;;;;;;5037984;28;20026;-66
2023/09/23 05:24:15;;;;;;;4.22;0.63;;;10.00;99.90;;;;;;5038007;28;20033;-67
2023/09/23 05:26:42;;;;;;;5.43;1.00;;;9.90;99.90;;;;;;5037772;28;20057;-66
2023/09/23 05:29:08;;;;;;;5.60;1.20;;;9.90;99.90;;;;;;5037663;28;20497;-67
2023/09/23 05:31:36;;;;;;;3.45;0.63;;;9.90;99.90;;;;;;5036365;28;20359;-67
2023/09/23 05:34:03;;;;;;;4.05;1.10;;;9.90;99.90;;;;;;5037800;28;20096;-66
2023/09/23 05:36:29;;;;;;;4.80;0.88;;;9.90;99.90;;;;;;5037809;28;20022;-66
2023/09/23 05:38:55;;;;;;;5.47;0.90;;;9.90;99.90;;;;;;5037916;28;20112;-66
2023/09/23 05:41:22;;;;;;;5.18;1.17;;;9.90;99.90;;;;;;5036457;28;20079;-67
2023/09/23 05:43:49;;;;;;;2.83;0.77;;;9.90;99.90;;;;;;5037447;28;20047;-66
2023/09/23 05:46:14;;;;;;;4.40;1.00;;;9.90;99.90;;;;;;5037529;28;20022;-67
2023/09/23 05:48:40;;;;;;;4.50;1.00;;;9.90;99.90;;;;;;5037492;28;20025;-66
2023/09/23 05:51:06;;;;;;;3.20;0.85;;;9.90;99.90;;;;;;5037492;28;20047;-66
2023/09/23 05:53:33;;;;;;;5.28;1.08;;;10.00;99.90;;;;;;5037437;28;20032;-67
2023/09/23 05:56:01;;;;;;;4.18;0.90;;;9.90;99.90;;;;;;5039694;28;20026;-66
2023/09/23 05:58:27;;;;;;;3.30;0.80;;;9.90;99.90;;;;;;4995459;28;1228161;-67
2023/09/23 06:00:53;;;;;;;4.38;0.90;;;10.00;99.90;;;;;;5038447;28;20087;-66
2023/09/23 06:03:18;;;;;;;2.63;0.73;;;9.90;99.90;;;;;;5038305;28;20064;-66
2023/09/23 06:05:44;;;;;;;4.57;0.77;;;10.00;99.90;;;;;;5038172;28;20029;-67
2023/09/23 06:08:13;;;;;;;4.72;0.90;;;10.00;99.90;;;;;;5038445;28;20017;-66
2023/09/23 06:10:39;;;;;;;1.80;0.75;;;10.00;99.90;;;;;;5037932;28;20075;-66
2023/09/23 06:13:06;;;;;;;1.38;0.80;;;10.10;99.90;;;;;;5038135;28;20101;-66
2023/09/23 06:15:32;;;;;;;3.45;0.80;;;10.10;99.90;;;;;;5038828;28;20028;-67
2023/09/23 06:17:57;;;;;;;3.70;0.80;;;10.10;99.90;;;;;;5036628;28;20014;-66
2023/09/23 06:20:23;;;;;;;3.53;0.80;;;10.10;99.90;;;;;;5038077;28;20367;-66
2023/09/23 06:22:49;;;;;;;5.35;0.90;;;10.20;99.90;;;;;;5038100;28;20017;-67
2023/09/23 06:25:15;;;;;;;2.15;0.60;;;10.20;99.90;;;;;;5037881;28;20026;-67
2023/09/23 06:27:40;;;;;;;2.35;0.75;;;10.20;99.90;;;;;;5035405;28;20022;-66
2023/09/23 06:30:06;;;;;;;3.42;0.90;;;10.20;99.90;;;;;;5036597;28;20021;-66
2023/09/23 06:32:32;;;;;;;2.42;1.00;;;10.20;99.90;;;;;;5036682;28;20017;-67
2023/09/23 06:34:58;;;;;;;5.15;0.85;;;10.20;99.90;;;;;;5036293;28;20164;-66
2023/09/23 06:37:24;;;;;;;4.80;0.75;;;10.30;99.90;;;;;;5036538;28;20028;-67
2023/09/23 06:39:49;;;;;;;2.40;0.77;;;10.40;99.90;;;;;;5037325;28;20025;-67
2023/09/23 06:42:15;;;;;;;3.85;0.90;;;10.40;99.90;;;;;;5036877;28;20614;-67
2023/09/23 06:44:42;;;;;;;3.13;0.90;;;10.50;99.90;;;;;;5034214;28;20033;-67
2023/09/23 06:47:08;;;;;;;3.15;0.90;;;10.50;99.90;;;;;;5037685;28;20033;-66
2023/09/23 06:49:35;;;;;;;4.07;0.98;;;10.50;99.90;;;;;;5037544;28;20503;-67
2023/09/23 06:52:01;;;;;;;4.13;1.08;;;10.50;99.90;;;;;;5036621;28;20517;-67
2023/09/23 06:54:26;;;;;;;4.00;1.02;;;10.60;99.90;;;;;;5039928;28;20017;-67
2023/09/23 06:56:55;;;;;;;3.90;0.70;;;10.70;99.90;;;;;;5036103;28;20172;-67
2023/09/23 06:59:21;;;;;;;3.38;1.30;;;10.70;99.90;;;;;;5037477;28;20021;-67
2023/09/23 07:01:47;;;;;;;5.43;1.48;;;10.80;99.90;;;;;;5035184;28;20041;-67
2023/09/23 07:04:13;;;;;;;4.35;1.40;;;10.80;99.90;;;;;;5036934;28;20025;-66
2023/09/23 07:06:39;;;;;;;3.92;0.90;;;10.90;99.90;;;;;;5036915;28;20021;-67
2023/09/23 07:09:04;;;;;;;2.33;0.77;;;10.90;99.90;;;;;;5036467;28;20540;-67
2023/09/23 07:11:30;;;;;;;5.72;1.23;;;10.90;99.90;;;;;;5036478;28;20029;-67
2023/09/23 07:13:58;;;;;;;3.47;0.93;;;10.90;99.90;;;;;;5036873;28;20041;-67
2023/09/23 07:16:25;;;;;;;4.35;0.80;;;11.00;99.90;;;;;;5037438;28;20033;-67
2023/09/23 07:18:51;;;;;;;4.90;0.98;;;11.10;99.90;;;;;;5034056;28;20032;-67
2023/09/23 07:21:16;;;;;;;4.13;0.90;;;11.10;99.90;;;;;;5037005;28;20096;-66
2023/09/23 07:23:42;;;;;;;3.38;0.88;;;11.20;99.90;;;;;;5036594;28;20051;-67
2023/09/23 07:26:08;;;;;;;2.95;0.88;;;11.20;99.90;;;;;;5036539;28;20030;-67
2023/09/23 07:28:33;;;;;;;2.90;0.90;;;11.30;99.90;;;;;;5034921;28;20013;-67
2023/09/23 07:31:00;;;;;;;4.88;1.10;;;11.40;99.90;;;;;;5036800;28;20603;-67
2023/09/23 07:33:26;;;;;;;4.70;0.93;;;11.50;99.90;;;;;;5036506;28;20029;-66
2023/09/23 07:35:51;;;;;;;2.92;0.90;;;11.50;99.90;;;;;;5036600;28;20029;-66
2023/09/23 07:38:17;;;;;;;5.10;1.10;;;11.60;99.90;;;;;;5036495;28;20044;-67
2023/09/23 07:40:43;;;;;;;2.28;1.00;;;11.70;99.90;;;;;;5036167;28;20116;-67
2023/09/23 07:43:08;;;;;;;6.32;1.30;;;11.70;99.90;;;;;;5036284;28;20429;-67
2023/09/23 07:45:34;;;;;;;5.07;1.20;;;11.80;99.90;;;;;;5036823;28;20028;-67
2023/09/23 07:48:00;;;;;;;4.05;1.20;;;11.80;99.90;;;;;;5036250;28;20024;-67
2023/09/23 07:50:26;;;;;;;5.63;1.02;;;11.90;99.90;;;;;;5036367;28;20044;-67
2023/09/23 07:52:52;;;;;;;6.75;1.00;;;11.90;99.90;;;;;;5036099;28;20029;-67
2023/09/23 07:55:17;;;;;;;5.22;1.20;;;12.00;99.90;;;;;;5036112;28;20029;-66
2023/09/23 07:57:43;;;;;;;4.50;0.80;;;12.00;99.90;;;;;;5035809;28;20045;-67
2023/09/23 08:00:09;;;;;;;3.45;1.30;;;12.10;99.90;;;;;;5036439;28;20064;-67
2023/09/23 08:02:35;;;;;;;5.45;1.20;;;12.10;99.90;;;;;;5035398;28;20108;-67
2023/09/23 08:05:04;;;;;;;4.82;1.38;;;12.20;99.90;;;;;;5036362;28;20509;-67
2023/09/23 08:07:33;;;;;;;4.55;1.10;;;12.20;99.90;;;;;;5034575;28;20025;-67
2023/09/23 08:09:59;;;;;;;4.35;1.42;;;12.30;99.90;;;;;;5033695;28;20018;-67
2023/09/23 08:12:25;;;;;;;4.72;1.17;;;12.30;99.90;;;;;;5036035;28;20018;-67
2023/09/23 08:14:51;;;;;;;7.03;1.33;;;12.20;99.90;;;;;;5042236;28;20431;-66
2023/09/23 08:17:17;;;;;;;5.45;1.20;;;12.20;99.90;;;;;;5040222;28;20116;-67
2023/09/23 08:19:44;;;;;;;7.18;1.20;;;12.30;99.90;;;;;;5036189;28;20025;-67
2023/09/23 08:22:10;;;;;;;5.28;0.98;;;12.30;99.90;;;;;;5036071;28;20055;-67
2023/09/23 08:24:37;;;;;;;3.67;0.98;;;12.40;99.90;;;;;;5036123;28;20029;-67
2023/09/23 08:27:03;;;;;;;5.25;1.27;;;12.60;99.90;;;;;;5032039;28;20067;-67
2023/09/23 08:29:29;;;;;;;4.50;1.10;;;12.60;99.90;;;;;;5035579;28;20017;-67
2023/09/23 08:31:55;;;;;;;6.25;1.20;;;12.80;99.90;;;;;;5035769;28;20470;-65
2023/09/23 08:34:20;;;;;;;4.93;1.08;;;12.80;99.90;;;;;;5036142;28;20053;-67
2023/09/23 08:36:46;;;;;;;3.70;1.00;;;12.90;99.90;;;;;;5035981;28;20026;-65
2023/09/23 08:39:12;;;;;;;2.92;1.05;;;13.00;99.90;;;;;;5034736;28;20485;-66
2023/09/23 08:41:39;;;;;;;7.40;1.45;;;13.10;99.90;;;;;;5035958;28;20026;-66
2023/09/23 08:44:05;;;;;;;4.35;1.25;;;13.20;99.90;;;;;;5035738;28;20104;-65
2023/09/23 08:46:32;;;;;;;3.72;1.35;;;13.30;99.90;;;;;;5036313;28;20025;-65
2023/09/23 08:49:01;;;;;;;4.40;1.13;;;13.30;99.90;;;;;;5036431;28;20036;-67
2023/09/23 08:51:27;;;;;;;2.63;0.93;;;13.40;99.90;;;;;;5038435;28;20021;-68
2023/09/23 08:53:54;;;;;;;3.58;0.88;;;13.50;99.90;;;;;;5039745;28;20026;-66
2023/09/23 08:56:20;;;;;;;3.33;0.95;;;13.70;99.90;;;;;;5041309;28;20517;-65
2023/09/23 08:58:48;;;;;;;3.47;1.05;;;13.80;99.90;;;;;;5039513;28;20414;-67
2023/09/23 09:01:15;;;;;;;4.20;1.20;;;13.80;99.90;;;;;;5039862;28;20155;-65
2023/09/23 09:03:41;;;;;;;3.85;1.00;;;13.90;99.90;;;;;;5039572;28;20238;-65
2023/09/23 09:06:17;;;;;;;6.78;1.00;;;14.10;99.90;;;;;;5039652;28;20104;-65
2023/09/23 09:08:43;;;;;;;3.40;1.20;;;14.10;99.90;;;;;;5039714;28;20490;-65
2023/09/23 09:11:09;;;;;;;4.22;1.30;;;14.20;99.90;;;;;;5037884;28;20053;-65
2023/09/23 09:13:36;;;;;;;5.65;1.40;;;14.30;99.90;;;;;;5039102;28;20100;-65
2023/09/23 09:16:05;;;;;;;6.32;1.58;;;14.30;99.90;;;;;;5041523;28;20100;-65
2023/09/23 09:18:31;;;;;;;4.68;1.27;;;14.40;99.90;;;;;;5038680;28;20037;-66
2023/09/23 09:20:57;;;;;;;4.28;1.40;;;14.50;99.90;;;;;;5039282;28;20036;-65
2023/09/23 09:23:29;;;;;;;4.88;1.40;;;14.70;99.90;;;;;;5039439;28;20045;-65
2023/09/23 09:25:55;;;;;;;7.10;2.35;;;14.80;99.90;;;;;;5045831;28;20025;-65
2023/09/23 09:28:21;;;;;;;5.18;1.70;;;14.80;99.90;;;;;;5038807;28;20021;-65
2023/09/23 09:30:56;;;;;;;4.28;1.20;;;14.80;99.90;;;;;;5039447;28;20021;-65
2023/09/23 09:33:27;;;;;;;5.25;1.10;;;14.90;99.90;;;;;;5039262;28;20021;-65
2023/09/23 09:35:56;;;;;;;4.22;1.15;;;14.80;99.90;;;;;;5039505;28;20082;-65
2023/09/23 09:38:25;;;;;;;4.55;1.40;;;14.90;99.90;;;;;;5038966;28;20029;-65
2023/09/23 09:40:59;;;;;;;2.70;0.90;;;15.00;99.90;;;;;;5038847;28;20030;-65
2023/09/23 09:43:25;;;;;;;3.83;1.08;;;15.00;99.90;;;;;;5038470;28;20172;-65
2023/09/23 09:45:52;;;;;;;3.50;1.20;;;15.00;99.90;;;;;;5039140;28;20049;-65
2023/09/23 09:48:19;;;;;;;4.80;1.20;;;15.00;99.90;;;;;;5038948;28;20108;-65
2023/09/23 09:50:46;;;;;;;4.07;1.30;;;15.10;99.90;;;;;;5039113;28;20557;-65
2023/09/23 09:53:13;;;;;;;4.15;1.10;;;15.10;99.90;;;;;;5038221;28;20025;-65
2023/09/23 09:55:39;;;;;;;2.55;1.08;;;15.10;99.90;;;;;;5039277;28;20018;-65
2023/09/23 09:58:05;;;;;;;3.67;0.80;;;15.10;99.90;;;;;;5037043;28;20072;-65
2023/09/23 10:00:42;;;;;;;2.72;1.17;;;15.10;99.90;;;;;;5038870;28;20497;-65
2023/09/23 10:03:11;;;;;;;3.63;1.38;;;15.10;99.90;;;;;;5037436;28;20074;-65
2023/09/23 10:05:50;;;;;;;3.05;1.10;;;15.20;99.90;;;;;;5038266;28;20083;-65
2023/09/23 10:08:24;;;;;;;2.47;1.17;;;15.40;99.90;;;;;;5027288;28;20033;-65
2023/09/23 10:10:57;;;;;;;4.47;1.35;;;15.50;99.90;;;;;;5037821;28;20021;-65
2023/09/23 10:13:23;;;;;;;3.63;1.38;;;15.70;99.90;;;;;;5037972;28;20041;-65
2023/09/23 10:16:02;;;;;;;3.53;1.13;;;15.80;99.90;;;;;;5045286;28;20025;-65
2023/09/23 10:18:37;;;;;;;3.33;0.95;;;16.00;99.90;;;;;;5036084;28;20094;-65
2023/09/23 10:21:03;;;;;;;3.58;0.98;;;16.10;99.90;;;;;;5037573;28;20021;-67
2023/09/23 10:23:35;;;;;;;6.30;1.25;;;16.20;99.90;;;;;;5037701;28;20441;-67
2023/09/23 10:26:16;;;;;;;3.08;1.00;;;16.00;99.90;;;;;;5040906;28;20086;-68
2023/09/23 10:28:43;;;;;;;3.78;1.50;;;16.00;99.90;;;;;;5044195;28;20024;-65
2023/09/23 10:31:10;;;;;;;2.55;1.00;;;16.00;99.90;;;;;;5038006;28;20424;-67
2023/09/23 10:33:36;;;;;;;2.83;1.00;;;16.10;99.90;;;;;;5036117;28;20398;-65
2023/09/23 10:36:04;;;;;;;2.20;0.88;;;16.20;99.90;;;;;;5039581;28;20032;-65
2023/09/23 10:38:34;;;;;;;2.67;1.20;;;16.20;99.90;;;;;;5043830;28;20034;-65
2023/09/23 10:41:00;;;;;;;2.25;0.80;;;16.20;99.90;;;;;;5043167;28;20075;-65
2023/09/23 10:43:27;;;;;;;1.88;0.90;;;16.10;99.90;;;;;;5043447;28;20073;-67
2023/09/23 10:45:57;;;;;;;2.17;0.90;;;16.00;99.90;;;;;;5046885;28;20170;-67
2023/09/23 10:48:23;;;;;;;2.33;1.20;;;16.00;99.90;;;;;;5044460;28;20048;-65
2023/09/23 10:50:52;;;;;;;3.15;1.10;;;16.10;99.90;;;;;;5046819;28;20029;-67
2023/09/23 10:53:18;;;;;;;2.20;1.00;;;16.30;99.90;;;;;;5038919;28;20025;-67
2023/09/23 10:55:45;;;;;;;1.77;0.80;;;16.40;99.90;;;;;;5040151;28;20474;-68
2023/09/23 10:58:11;;;;;;;2.13;1.10;;;16.50;99.90;;;;;;5037491;28;20041;-67
2023/09/23 11:00:37;;;;;;;2.72;0.80;;;16.50;99.90;;;;;;5037713;28;20037;-65
2023/09/23 11:03:17;;;;;;;1.85;0.93;;;16.50;99.90;;;;;;5039178;28;20071;-65
2023/09/23 11:05:43;;;;;;;2.72;1.00;;;16.40;99.90;;;;;;5044174;28;20530;-67
2023/09/23 11:08:10;;;;;;;2.47;1.13;;;16.40;99.90;;;;;;5037554;28;20029;-67
2023/09/23 11:10:40;;;;;;;2.88;1.17;;;16.30;99.90;;;;;;5037324;28;20080;-67
2023/09/23 11:13:08;;;;;;;5.10;1.33;;;16.30;99.90;;;;;;5037209;28;20383;-67
2023/09/23 11:15:39;;;;;;;2.50;0.95;;;16.30;99.90;;;;;;5047689;28;20028;-67
2023/09/23 11:18:10;;;;;;;2.25;0.90;;;16.20;99.90;;;;;;5037400;28;20490;-67
2023/09/23 11:20:38;;;;;;;2.67;1.30;;;16.20;99.90;;;;;;5036873;28;20064;-67
2023/09/23 11:23:05;;;;;;;2.92;1.00;;;16.20;99.90;;;;;;5037296;28;20033;-67
2023/09/23 11:25:41;;;;;;;3.65;1.30;;;16.30;99.90;;;;;;5037055;28;20073;-67
2023/09/23 11:28:14;;;;;;;2.20;1.02;;;16.30;99.90;;;;;;5037154;28;20017;-67
2023/09/23 11:30:40;;;;;;;3.60;1.10;;;16.50;99.90;;;;;;5037096;28;20030;-67
2023/09/23 11:33:06;;;;;;;2.65;1.30;;;16.60;99.90;;;;;;5037201;28;20102;-67
2023/09/23 11:35:33;;;;;;;3.20;1.48;;;16.60;99.90;;;;;;5037092;28;20069;-67
2023/09/23 11:37:59;;;;;;;2.55;0.93;;;16.70;99.90;;;;;;5037266;28;20022;-67
2023/09/23 11:40:25;;;;;;;3.30;1.30;;;16.60;99.90;;;;;;5036836;28;20448;-67
2023/09/23 11:42:50;;;;;;;2.70;1.13;;;16.70;99.90;;;;;;5036230;28;20040;-67
2023/09/23 11:45:16;;;;;;;2.70;1.30;;;16.70;99.90;;;;;;5036988;28;20022;-67
2023/09/23 11:47:41;;;;;;;3.03;1.08;;;16.80;99.90;;;;;;5037105;28;20022;-67
2023/09/23 11:50:07;;;;;;;2.92;1.20;;;16.80;89.40;;;;;;5036613;28;20069;-67
2023/09/23 11:52:34;;;;;;;1.95;1.08;;;17.00;99.90;;;;;;5036978;28;20031;-66
2023/09/23 11:54:59;;;;;;;2.97;1.20;;;17.20;99.90;;;;;;5038944;28;20029;-67
2023/09/23 11:57:28;;;;;;;2.28;1.13;;;17.30;99.90;;;;;;5036418;28;20076;-67
2023/09/23 11:59:54;;;;;;;3.65;1.20;;;17.20;99.90;;;;;;5036732;28;20029;-67
2023/09/23 12:02:21;;;;;;;3.38;1.23;;;17.40;99.90;;;;;;5036654;28;20069;-67
2023/09/23 12:04:47;;;;;;;2.72;1.17;;;17.50;99.90;;;;;;5036211;28;20528;-67
2023/09/23 12:07:16;;;;;;;3.05;1.40;;;17.70;99.90;;;;;;5036666;28;20021;-67
2023/09/23 12:09:43;;;;;;;2.90;1.33;;;17.70;99.90;;;;;;5036638;28;20025;-67
2023/09/23 12:12:12;;;;;;;3.50;1.45;;;17.90;99.60;;;;;;5036218;28;20022;-67
2023/09/23 12:14:43;;;;;;;2.28;1.42;;;18.00;94.50;;;;;;5040430;28;20053;-67
2023/09/23 12:17:14;;;;;;;1.88;1.10;;;17.90;99.90;;;;;;5037783;28;20040;-67
2023/09/23 12:19:40;;;;;;;3.13;1.30;;;17.90;96.40;;;;;;5036594;28;20048;-67
2023/09/23 12:22:05;;;;;;;3.53;1.50;;;17.90;96.00;;;;;;5035389;28;20394;-67
2023/09/23 12:24:31;;;;;;;4.35;1.52;;;17.80;97.10;;;;;;5036582;28;20056;-67
2023/09/23 12:26:58;;;;;;;3.72;1.65;;;17.80;97.80;;;;;;5039183;28;20221;-67
2023/09/23 12:29:24;;;;;;;4.38;1.65;;;17.90;99.90;;;;;;5040273;28;20030;-67
2023/09/23 12:31:50;;;;;;;4.57;1.52;;;17.90;97.60;;;;;;5040362;28;20034;-67
2023/09/23 12:34:15;;;;;;;2.72;1.45;;;18.00;99.90;;;;;;5040652;28;20089;-67
2023/09/23 12:36:41;;;;;;;2.95;1.30;;;18.20;99.90;;;;;;5039939;28;20076;-67
2023/09/23 12:39:06;;;;;;;4.53;1.60;;;18.20;97.30;;;;;;5038667;28;20029;-67
2023/09/23 12:41:32;;;;;;;4.93;1.40;;;18.30;93.10;;;;;;5038600;28;20076;-67
2023/09/23 12:43:58;;;;;;;3.72;1.50;;;18.30;92.00;;;;;;5038427;28;20113;-67
2023/09/23 12:46:23;;;;;;;3.47;1.50;;;18.40;99.90;;;;;;5040004;28;20026;-67
2023/09/23 12:48:49;;;;;;;4.15;1.55;;;18.50;93.30;;;;;;5040190;28;20044;-67